createdAt,value
2016-04-15T07:54:34.669Z,830
2016-04-15T07:54:48.638Z,830
2016-04-15T07:55:16.390Z,815
2016-04-15T07:55:33.109Z,800
2016-04-15T07:55:46.890Z,785
2016-04-15T07:56:00.906Z,765
2016-04-15T07:56:14.894Z,750
2016-04-15T07:56:35.410Z,725
2016-04-15T07:56:49.097Z,710
2016-04-15T07:57:05.818Z,700
2016-04-15T07:57:19.412Z,700
2016-04-15T07:57:33.412Z,700
2016-04-15T07:58:01.084Z,705
2016-04-15T07:58:18.180Z,690
2016-04-15T07:58:31.977Z,680
2016-04-15T07:58:45.634Z,665
2016-04-15T07:59:13.792Z,635
2016-04-15T07:59:56.386Z,620
2016-04-15T08:00:09.982Z,625
2016-04-15T08:00:23.935Z,625
2016-04-15T08:00:52.217Z,645
2016-04-15T08:01:20.079Z,655
2016-04-15T08:01:48.110Z,640
2016-04-15T08:02:01.923Z,635
2016-04-15T08:02:16.081Z,630
2016-04-15T08:02:30.878Z,620
2016-04-15T08:02:59.284Z,635
2016-04-15T08:03:13.615Z,645
2016-04-15T08:03:43.084Z,670
2016-04-15T08:03:56.678Z,670
2016-04-15T08:04:10.025Z,675
2016-04-15T08:04:30.118Z,685
2016-04-15T08:04:57.978Z,710
2016-04-15T08:05:12.028Z,720
2016-04-15T08:05:25.856Z,740
2016-04-15T08:05:40.106Z,755
2016-04-15T08:05:54.074Z,770
2016-04-15T08:06:07.656Z,795
2016-04-15T08:06:21.656Z,825
2016-04-15T08:06:49.499Z,875
2016-04-15T08:07:03.531Z,900
2016-04-15T08:07:17.252Z,910
2016-04-15T08:08:52.207Z,945
2016-04-15T08:09:08.945Z,905
2016-04-15T08:09:23.179Z,885
2016-04-15T08:09:36.742Z,890
2016-04-15T08:09:50.382Z,880
2016-04-15T08:10:03.976Z,870
2016-04-15T08:10:17.009Z,850
2016-04-15T08:10:31.931Z,835
2016-04-15T08:11:16.481Z,745
2016-04-15T08:11:29.684Z,720
2016-04-15T08:11:43.856Z,695
2016-04-15T08:11:57.669Z,690
2016-04-15T08:12:25.843Z,665
2016-04-15T08:12:39.656Z,655
2016-04-15T08:12:53.984Z,640
2016-04-15T08:13:07.705Z,630
2016-04-15T08:13:21.502Z,630
2016-04-15T08:13:38.845Z,625
2016-04-15T08:13:58.830Z,620
2016-04-15T08:14:12.473Z,620
2016-04-15T08:14:46.692Z,650
2016-04-15T08:15:00.208Z,670
2016-04-15T08:15:27.975Z,700
2016-04-15T08:15:41.710Z,715
2016-04-15T08:15:55.210Z,730
2016-04-15T08:16:09.136Z,740
2016-04-15T08:16:23.292Z,765
2016-04-15T08:16:36.792Z,785
2016-04-15T08:17:04.778Z,840
2016-04-15T08:17:18.919Z,875
2016-04-15T08:17:32.903Z,890
2016-04-15T08:17:46.450Z,895
2016-04-15T08:18:00.169Z,900
2016-04-15T08:18:41.641Z,920
2016-04-15T08:18:55.813Z,945
2016-04-15T08:19:23.612Z,945
2016-04-15T08:19:40.769Z,915
2016-04-15T08:19:54.769Z,900
2016-04-15T08:20:08.443Z,910
2016-04-15T08:20:25.239Z,950
2016-04-15T08:20:38.646Z,975
2016-04-15T08:20:52.458Z,995
2016-04-15T08:21:08.967Z,1030
2016-04-15T08:21:23.764Z,1045
2016-04-15T08:21:37.295Z,1030
2016-04-15T08:21:50.795Z,1010
2016-04-15T08:22:08.157Z,975
2016-04-15T08:22:35.798Z,925
2016-04-15T08:22:49.657Z,905
2016-04-15T08:23:06.363Z,895
2016-04-15T08:23:47.831Z,960
2016-04-15T08:24:33.459Z,995
2016-04-15T08:24:47.475Z,1005
2016-04-15T08:25:01.334Z,1025
2016-04-15T08:25:15.461Z,1050
2016-04-15T08:26:01.243Z,1090
2016-04-15T08:26:14.886Z,1105
2016-04-15T08:26:31.714Z,1145
2016-04-15T08:26:45.464Z,1180
2016-04-15T08:26:58.339Z,1175
2016-04-15T08:27:14.920Z,1110
2016-04-15T08:28:09.954Z,1025
2016-04-15T08:28:23.438Z,1025
2016-04-15T08:28:37.376Z,1015
2016-04-15T08:28:54.235Z,1010
2016-04-15T08:29:08.005Z,1000
2016-04-15T08:29:24.645Z,970
2016-04-15T08:29:41.333Z,960
2016-04-15T08:29:58.176Z,940
2016-04-15T08:30:11.678Z,930
2016-04-15T08:30:28.819Z,930
2016-04-15T08:30:42.819Z,935
2016-04-15T08:30:56.616Z,960
2016-04-15T08:31:11.468Z,1005
2016-04-15T08:31:25.561Z,1090
2016-04-15T08:31:39.061Z,1200
2016-04-15T08:31:52.796Z,1280
2016-04-15T08:32:06.388Z,1325
2016-04-15T08:32:19.935Z,1340
2016-04-15T08:32:36.747Z,1345
2016-04-15T08:32:51.091Z,1380
2016-04-15T08:33:18.995Z,1420
2016-04-15T08:33:32.667Z,1420
2016-04-15T08:33:46.417Z,1345
2016-04-15T08:34:00.886Z,1320
2016-04-15T08:34:14.681Z,1345
2016-04-15T08:34:28.212Z,1365
2016-04-15T08:34:42.165Z,1370
2016-04-15T08:34:55.696Z,1395
2016-04-15T08:35:09.930Z,1430
2016-04-15T08:35:23.477Z,1470
2016-04-15T08:35:51.664Z,1445
2016-04-15T08:36:07.628Z,1425
2016-04-15T08:36:21.269Z,1380
2016-04-15T08:36:34.800Z,1335
2016-04-15T08:36:48.534Z,1285
2016-04-15T08:37:30.771Z,1135
2016-04-15T08:37:44.818Z,1115
2016-04-15T08:38:41.461Z,1110
2016-04-15T08:38:58.227Z,1095
2016-04-15T08:39:12.901Z,1085
2016-04-15T08:39:40.760Z,1065
2016-04-15T08:40:22.466Z,1035
2016-04-15T08:40:36.106Z,1035
2016-04-15T08:40:49.747Z,1040
2016-04-15T08:41:07.030Z,1035
2016-04-15T08:41:21.139Z,1050
2016-04-15T08:41:35.092Z,1070
2016-04-15T08:41:51.061Z,1095
2016-04-15T08:42:04.498Z,1080
2016-04-15T08:42:32.694Z,995
2016-04-15T08:43:00.616Z,905
2016-04-15T08:43:41.624Z,870
2016-04-15T08:43:58.530Z,880
2016-04-15T08:44:15.086Z,900
2016-04-15T08:44:28.664Z,935
2016-04-15T08:44:57.320Z,1045
2016-04-15T08:45:11.391Z,1120
2016-04-15T08:45:24.953Z,1205
2016-04-15T08:45:38.594Z,1300
2016-04-15T08:45:52.610Z,1425
2016-04-15T08:46:06.554Z,1565
2016-04-15T08:46:20.367Z,1785
2016-04-15T08:46:34.413Z,1635
2016-04-15T08:46:52.132Z,1655
2016-04-15T08:47:06.418Z,1710
2016-04-15T08:47:20.809Z,1760
2016-04-15T08:47:34.778Z,1750
2016-04-15T08:47:48.653Z,1695
2016-04-15T08:48:02.231Z,1635
2016-04-15T08:48:16.219Z,1565
2016-04-15T08:48:30.047Z,1545
2016-04-15T08:48:43.782Z,1570
2016-04-15T08:48:58.016Z,1625
2016-04-15T08:49:11.724Z,1655
2016-04-15T08:49:28.881Z,1665
2016-04-15T08:49:41.896Z,1655
2016-04-15T08:49:56.771Z,1615
2016-04-15T08:50:11.447Z,1580
2016-04-15T08:50:56.510Z,1550
2016-04-15T08:51:41.640Z,1630
2016-04-15T08:51:55.390Z,1620
2016-04-15T08:52:09.269Z,1630
2016-04-15T08:52:23.050Z,1635
2016-04-15T08:52:50.894Z,1650
2016-04-15T08:53:04.487Z,1650
2016-04-15T08:53:21.959Z,1680
2016-04-15T08:53:35.787Z,1790
2016-04-15T08:53:52.834Z,1930
2016-04-15T08:54:06.354Z,2005
2016-04-15T08:54:20.479Z,2020
2016-04-15T08:54:33.432Z,1820
2016-04-15T08:54:50.182Z,1495
2016-04-15T08:55:04.072Z,1310
2016-04-15T08:55:20.716Z,1165
2016-04-15T08:55:48.685Z,1040
2016-04-15T08:56:03.200Z,995
2016-04-15T08:56:16.735Z,975
2016-04-15T08:56:30.953Z,945
2016-04-15T08:56:45.453Z,935
2016-04-15T08:57:13.347Z,950
2016-04-15T08:57:27.363Z,965
2016-04-15T08:57:41.331Z,975
2016-04-15T08:57:55.113Z,985
2016-04-15T08:58:08.663Z,995
2016-04-15T08:58:25.303Z,990
2016-04-15T08:58:48.444Z,990
2016-04-15T08:59:17.370Z,995
2016-04-15T08:59:31.042Z,1010
2016-04-15T09:00:12.887Z,1075
2016-04-15T09:00:26.715Z,1110
2016-04-15T09:00:41.059Z,1135
2016-04-15T09:00:54.622Z,1135
2016-04-15T09:01:08.218Z,1120
2016-04-15T09:01:21.984Z,1100
2016-04-15T09:01:36.109Z,1095
2016-04-15T09:01:50.500Z,1080
2016-04-15T09:02:04.297Z,1075
2016-04-15T09:02:18.503Z,1080
2016-04-15T09:02:32.659Z,1070
2016-04-15T09:02:46.409Z,1085
2016-04-15T09:03:14.365Z,1140
2016-04-15T09:03:28.334Z,1170
2016-04-15T09:03:45.146Z,1195
2016-04-15T09:03:58.615Z,1205
2016-04-15T09:04:15.618Z,1215
2016-04-15T09:04:29.493Z,1220
2016-04-15T09:04:43.259Z,1235
2016-04-15T09:04:57.024Z,1245
2016-04-15T09:05:25.387Z,1250
2016-04-15T09:05:39.965Z,1245
2016-04-15T09:05:54.027Z,1245
2016-04-15T09:06:24.936Z,1245
2016-04-15T09:06:38.904Z,1250
2016-04-15T09:06:55.686Z,1245
2016-04-15T09:07:09.095Z,1215
2016-04-15T09:07:22.782Z,1185
2016-04-15T09:07:39.376Z,1155
2016-04-15T09:07:56.017Z,1125
2016-04-15T09:08:10.253Z,1105
2016-04-15T09:08:23.441Z,1105
2016-04-15T09:08:39.472Z,1125
2016-04-15T09:08:53.456Z,1135
2016-04-15T09:09:07.428Z,1145
2016-04-15T09:09:24.490Z,1160
2016-04-15T09:09:38.022Z,1190
2016-04-15T09:10:19.806Z,1315
2016-04-15T09:10:36.618Z,1340
2016-04-15T09:10:50.431Z,1355
2016-04-15T09:11:04.228Z,1355
2016-04-15T09:11:17.886Z,1370
2016-04-15T09:11:45.652Z,1355
2016-04-15T09:11:59.464Z,1355
2016-04-15T09:12:13.889Z,1335
2016-04-15T09:12:27.686Z,1320
2016-04-15T09:12:44.280Z,1305
2016-04-15T09:12:57.686Z,1285
2016-04-15T09:13:28.266Z,1260
2016-04-15T09:13:42.188Z,1235
2016-04-15T09:13:55.891Z,1190
2016-04-15T09:14:09.519Z,1140
2016-04-15T09:14:23.503Z,1095
2016-04-15T09:14:51.722Z,1010
2016-04-15T09:15:05.569Z,995
2016-04-15T09:15:18.928Z,995
2016-04-15T09:15:32.522Z,1005
2016-04-15T09:15:46.038Z,1020
2016-04-15T09:15:59.772Z,1050
2016-04-15T09:16:13.947Z,1095
2016-04-15T09:16:30.900Z,1165
2016-04-15T09:16:48.025Z,1255
2016-04-15T09:17:01.603Z,1330
2016-04-15T09:17:15.731Z,1390
2016-04-15T09:17:43.575Z,1450
2016-04-15T09:17:57.137Z,1435
2016-04-15T09:18:13.843Z,1390
2016-04-15T09:18:31.343Z,1315
2016-04-15T09:18:48.358Z,1250
2016-04-15T09:19:01.952Z,1205
2016-04-15T09:19:30.127Z,1125
2016-04-15T09:19:44.299Z,1100
2016-04-15T09:19:58.174Z,1060
2016-04-15T09:20:11.894Z,1035
2016-04-15T09:20:25.738Z,1020
2016-04-15T09:20:39.504Z,1010
2016-04-15T09:20:53.598Z,1005
2016-04-15T09:21:35.210Z,990
2016-04-15T09:21:48.319Z,980
2016-04-15T09:22:43.416Z,920
2016-04-15T09:22:57.525Z,900
2016-04-15T09:23:11.419Z,880
2016-04-15T09:23:56.232Z,800
2016-04-15T09:24:24.374Z,790
2016-04-15T09:24:38.562Z,800
2016-04-15T09:25:06.644Z,865
2016-04-15T09:25:20.597Z,915
2016-04-15T09:25:34.316Z,970
2016-04-15T09:25:48.097Z,1035
2016-04-15T09:26:02.050Z,1095
2016-04-15T09:26:15.536Z,1140
2016-04-15T09:26:29.365Z,1170
2016-04-15T09:26:46.240Z,1190
2016-04-15T09:27:03.708Z,1190
2016-04-15T09:27:31.633Z,1140
2016-04-15T09:27:45.743Z,1105
2016-04-15T09:28:13.760Z,1025
2016-04-15T09:28:27.854Z,995
2016-04-15T09:28:41.541Z,975
2016-04-15T09:28:55.385Z,955
2016-04-15T09:29:12.185Z,940
2016-04-15T09:29:26.138Z,930
2016-04-15T09:29:42.794Z,930
2016-04-15T09:29:56.685Z,940
2016-04-15T09:30:10.844Z,950
2016-04-15T09:30:24.594Z,960
2016-04-15T09:30:38.063Z,970
2016-04-15T09:30:51.688Z,975
2016-04-15T09:31:40.503Z,945
2016-04-15T09:31:54.253Z,925
2016-04-15T09:32:22.349Z,910
2016-04-15T09:32:36.771Z,900
2016-04-15T09:32:50.693Z,905
2016-04-15T09:33:04.615Z,920
2016-04-15T09:33:18.195Z,940
2016-04-15T09:33:31.945Z,960
2016-04-15T09:33:46.773Z,980
2016-04-15T09:34:00.992Z,1005
2016-04-15T09:34:15.448Z,1030
2016-04-15T09:34:46.526Z,1075
2016-04-15T09:35:00.745Z,1085
2016-04-15T09:35:28.607Z,1115
2016-04-15T09:35:42.889Z,1130
2016-04-15T09:35:56.701Z,1165
2016-04-15T09:36:10.423Z,1195
2016-04-15T09:36:24.595Z,1220
2016-04-15T09:36:38.376Z,1260
2016-04-15T09:37:08.988Z,1330
2016-04-15T09:37:22.910Z,1395
2016-04-15T09:37:36.473Z,1460
2016-04-15T09:38:04.504Z,1530
2016-04-15T09:38:32.303Z,1470
2016-04-15T09:38:45.865Z,1430
2016-04-15T09:39:09.150Z,1380
2016-04-15T09:39:22.962Z,1355
2016-04-15T09:39:36.540Z,1335
2016-04-15T09:39:50.962Z,1315
2016-04-15T09:40:05.152Z,1280
2016-04-15T09:40:18.714Z,1245
2016-04-15T09:40:35.652Z,1210
2016-04-15T09:40:48.933Z,1170
2016-04-15T09:41:02.448Z,1140
2016-04-15T09:41:16.389Z,1110
2016-04-15T09:41:29.967Z,1095
2016-04-15T09:41:43.920Z,1090
2016-04-15T09:41:57.733Z,1085
2016-04-15T09:42:14.361Z,1095
2016-04-15T09:42:28.267Z,1080
2016-04-15T09:42:41.783Z,1070
2016-04-15T09:43:09.722Z,1080
2016-04-15T09:43:23.222Z,1095
2016-04-15T09:43:36.847Z,1105
2016-04-15T09:44:19.147Z,1105
2016-04-15T09:44:33.241Z,1110
2016-04-15T09:44:47.178Z,1125
2016-04-15T09:45:01.678Z,1125
2016-04-15T09:45:15.618Z,1145
2016-04-15T09:45:58.430Z,1220
2016-04-15T09:46:12.152Z,1225
2016-04-15T09:46:25.980Z,1220
2016-04-15T09:46:53.824Z,1215
2016-04-15T09:47:07.889Z,1210
2016-04-15T09:47:24.577Z,1215
2016-04-15T09:47:38.483Z,1210
2016-04-15T09:47:52.358Z,1210
2016-04-15T09:48:06.017Z,1225
2016-04-15T09:48:20.158Z,1235
2016-04-15T09:48:47.892Z,1270
2016-04-15T09:49:01.533Z,1290
2016-04-15T09:49:15.395Z,1300
2016-04-15T09:49:29.880Z,1310
2016-04-15T09:50:00.552Z,1330
2016-04-15T09:50:14.366Z,1335
2016-04-15T09:50:28.694Z,1335
2016-04-15T09:50:42.632Z,1335
2016-04-15T09:50:56.616Z,1340
2016-04-15T09:51:09.697Z,1350
2016-04-15T09:51:23.697Z,1370
2016-04-15T09:51:51.947Z,1380
2016-04-15T09:52:05.762Z,1395
2016-04-15T09:52:19.934Z,1435
2016-04-15T09:52:34.027Z,1480
2016-04-15T09:52:48.090Z,1515
2016-04-15T09:53:01.668Z,1545
2016-04-15T09:53:22.124Z,1520
2016-04-15T09:53:35.983Z,1495
2016-04-15T09:53:49.812Z,1475
2016-04-15T09:54:04.890Z,1455
2016-04-15T09:54:18.658Z,1410
2016-04-15T09:54:32.674Z,1380
2016-04-15T09:55:00.690Z,1360
2016-04-15T09:55:31.568Z,1395
2016-04-15T09:55:45.396Z,1365
2016-04-15T09:56:08.430Z,1255
2016-04-15T09:56:36.961Z,1155
2016-04-15T09:56:50.539Z,1115
2016-04-15T09:57:04.305Z,1085
2016-04-15T09:57:46.480Z,1005
2016-04-15T09:58:01.074Z,985
2016-04-15T09:58:14.591Z,965
2016-04-15T09:58:28.185Z,930
2016-04-15T09:58:41.732Z,905
2016-04-15T09:58:55.310Z,880
2016-04-15T09:59:12.266Z,865
2016-04-15T09:59:26.110Z,875
2016-04-15T09:59:38.907Z,895
2016-04-15T09:59:53.016Z,925
2016-04-15T10:00:06.784Z,970
2016-04-15T10:00:20.315Z,1035
2016-04-15T10:00:34.612Z,1105
2016-04-15T10:00:51.346Z,1190
2016-04-15T10:01:05.112Z,1255
2016-04-15T10:01:21.974Z,1335
2016-04-15T10:01:36.146Z,1385
2016-04-15T10:01:49.880Z,1410
2016-04-15T10:02:03.474Z,1430
2016-04-15T10:02:17.523Z,1425
2016-04-15T10:02:31.336Z,1420
2016-04-15T10:02:44.914Z,1420
2016-04-15T10:02:58.726Z,1430
2016-04-15T10:03:32.401Z,1460
2016-04-15T10:03:45.885Z,1485
2016-04-15T10:03:59.995Z,1545
2016-04-15T10:04:13.982Z,1645
2016-04-15T10:04:28.201Z,1745
2016-04-15T10:04:42.263Z,1770
2016-04-15T10:05:10.078Z,1680
2016-04-15T10:05:27.109Z,1655
2016-04-15T10:05:40.672Z,1660
2016-04-15T10:05:54.515Z,1670
2016-04-15T10:06:08.847Z,1640
2016-04-15T10:06:22.409Z,1630
2016-04-15T10:06:36.347Z,1635
2016-04-15T10:06:50.581Z,1645
2016-04-15T10:07:18.178Z,1675
2016-04-15T10:07:32.193Z,1670
2016-04-15T10:08:00.209Z,1605
2016-04-15T10:08:14.353Z,1540
2016-04-15T10:08:30.853Z,1450
2016-04-15T10:08:47.649Z,1345
2016-04-15T10:09:01.665Z,1260
2016-04-15T10:09:15.324Z,1210
2016-04-15T10:09:28.824Z,1175
2016-04-15T10:09:42.449Z,1165
2016-04-15T10:09:56.277Z,1160
2016-04-15T10:10:10.576Z,1155
2016-04-15T10:10:24.842Z,1155
2016-04-15T10:10:52.795Z,1160
2016-04-15T10:11:06.376Z,1160
2016-04-15T10:11:34.361Z,1155
2016-04-15T10:11:48.298Z,1150
2016-04-15T10:12:05.253Z,1140
2016-04-15T10:12:19.363Z,1135
2016-04-15T10:12:33.159Z,1130
2016-04-15T10:12:47.128Z,1120
2016-04-15T10:13:00.613Z,1110
2016-04-15T10:13:17.319Z,1090
2016-04-15T10:13:31.225Z,1085
2016-04-15T10:13:45.022Z,1075
2016-04-15T10:13:58.475Z,1075
2016-04-15T10:14:12.119Z,1070
2016-04-15T10:14:29.759Z,1040
2016-04-15T10:14:46.837Z,1010
2016-04-15T10:15:00.931Z,985
2016-04-15T10:15:14.792Z,970
2016-04-15T10:15:28.464Z,965
2016-04-15T10:15:42.230Z,970
2016-04-15T10:16:10.999Z,1005
2016-04-15T10:16:24.655Z,1035
2016-04-15T10:16:39.124Z,1090
2016-04-15T10:17:10.126Z,1220
2016-04-15T10:17:23.735Z,1300
2016-04-15T10:17:37.547Z,1365
2016-04-15T10:17:54.454Z,1440
2016-04-15T10:18:22.097Z,1500
2016-04-15T10:18:36.269Z,1530
2016-04-15T10:19:04.113Z,1545
2016-04-15T10:19:21.741Z,1555
2016-04-15T10:19:49.866Z,1580
2016-04-15T10:20:04.757Z,1595
2016-04-15T10:20:18.713Z,1595
2016-04-15T10:20:49.103Z,1565
2016-04-15T10:21:03.072Z,1575
2016-04-15T10:21:22.794Z,1580
2016-04-15T10:21:36.731Z,1610
2016-04-15T10:21:50.700Z,1580
2016-04-15T10:22:18.686Z,1605
2016-04-15T10:22:32.765Z,1635
2016-04-15T10:22:47.186Z,1590
2016-04-15T10:23:03.999Z,1620
2016-04-15T10:23:20.439Z,1655
2016-04-15T10:24:03.252Z,2030
2016-04-15T10:24:23.160Z,2050
2016-04-15T10:24:37.051Z,2070
2016-04-15T10:24:53.973Z,2050
2016-04-15T10:25:07.554Z,1915
2016-04-15T10:25:35.382Z,1795
2016-04-15T10:25:49.538Z,1740
2016-04-15T10:26:03.179Z,1710
2016-04-15T10:26:20.026Z,1640
2016-04-15T10:26:36.151Z,1560
2016-04-15T10:26:50.041Z,1525
2016-04-15T10:27:31.575Z,1455
2016-04-15T10:27:59.372Z,1375
2016-04-15T10:28:55.875Z,1290
2016-04-15T10:29:09.550Z,1285
2016-04-15T10:29:23.300Z,1290
2016-04-15T10:29:37.456Z,1290
2016-04-15T10:29:50.425Z,1300
2016-04-15T10:30:21.115Z,1345
2016-04-15T10:30:39.646Z,1395
2016-04-15T10:30:56.287Z,1415
2016-04-15T10:31:09.446Z,1435
2016-04-15T10:31:37.743Z,1415
2016-04-15T10:31:52.524Z,1405
2016-04-15T10:32:07.104Z,1410
2016-04-15T10:32:35.104Z,1460
2016-04-15T10:32:48.713Z,1495
2016-04-15T10:33:05.607Z,1545
2016-04-15T10:33:33.482Z,1515
2016-04-15T10:34:01.545Z,1585
2016-04-15T10:34:15.531Z,1615
2016-04-15T10:35:16.175Z,1715
2016-04-15T10:35:30.378Z,1775
2016-04-15T10:35:44.331Z,1860
2016-04-15T10:35:58.550Z,1670
2016-04-15T10:36:12.443Z,1675
2016-04-15T10:36:40.928Z,2090
2016-04-15T10:36:54.724Z,2295
2016-04-15T10:37:11.680Z,2950
2016-04-15T10:37:39.726Z,4365
2016-04-15T10:37:56.914Z,3700
2016-04-15T10:38:11.559Z,3535
2016-04-15T10:38:24.715Z,3955
2016-04-15T10:38:38.449Z,3600
2016-04-15T10:38:52.496Z,3280
2016-04-15T10:39:06.701Z,2415
2016-04-15T10:39:20.779Z,2185
2016-04-15T10:39:34.607Z,2490
2016-04-15T10:39:48.217Z,1880
2016-04-15T10:40:02.170Z,1695
2016-04-15T10:40:15.767Z,1590
2016-04-15T10:40:30.798Z,1540
2016-04-15T10:40:44.282Z,1505
2016-04-15T10:41:03.954Z,1485
2016-04-15T10:41:17.706Z,1475
2016-04-15T10:41:31.769Z,1460
2016-04-15T10:41:45.191Z,1460
2016-04-15T10:41:59.831Z,1460
2016-04-15T10:42:16.350Z,1460
2016-04-15T10:42:36.209Z,1480
2016-04-15T10:42:50.115Z,1515
2016-04-15T10:43:03.834Z,1545
2016-04-15T10:43:31.790Z,1735
2016-04-15T10:43:59.587Z,1710
2016-04-15T10:44:30.933Z,1710
2016-04-15T10:44:44.402Z,1690
2016-04-15T10:44:58.386Z,1640
2016-04-15T10:45:12.155Z,1620
2016-04-15T10:45:29.045Z,1615
2016-04-15T10:45:51.858Z,1545
2016-04-15T10:46:06.172Z,1480
2016-04-15T10:46:19.922Z,1445
2016-04-15T10:46:33.672Z,1400
2016-04-15T10:46:47.516Z,1370
2016-04-15T10:47:05.032Z,1350
2016-04-15T10:47:20.613Z,1330
2016-04-15T10:47:34.300Z,1335
2016-04-15T10:47:49.253Z,1335
2016-04-15T10:48:05.741Z,1335
2016-04-15T10:48:22.506Z,1340
2016-04-15T10:48:36.256Z,1345
2016-04-15T10:48:50.022Z,1350
2016-04-15T10:49:04.475Z,1360
2016-04-15T10:49:32.602Z,1395
2016-04-15T10:50:06.247Z,1450
2016-04-15T10:50:20.012Z,1490
2016-04-15T10:50:33.762Z,1530
2016-04-15T10:51:01.403Z,1545
2016-04-15T10:51:17.921Z,1560
2016-04-15T10:51:31.608Z,1550
2016-04-15T10:51:45.374Z,1550
2016-04-15T10:52:02.280Z,1645
2016-04-15T10:52:16.564Z,1850
2016-04-15T10:52:34.580Z,2205
2016-04-15T10:52:51.642Z,2315
2016-04-15T10:53:08.348Z,2495
2016-04-15T10:53:21.988Z,2350
2016-04-15T10:53:38.629Z,2475
2016-04-15T10:54:23.647Z,2000
2016-04-15T10:54:37.226Z,2015
2016-04-15T10:54:50.819Z,1710
2016-04-15T10:55:04.554Z,1670
2016-04-15T10:55:17.932Z,1670
2016-04-15T10:55:31.619Z,1740
2016-04-15T10:55:45.369Z,1845
2016-04-15T10:55:59.244Z,1800
2016-04-15T10:56:41.419Z,3060
2016-04-15T10:57:09.297Z,2350
2016-04-15T10:57:22.328Z,1955
2016-04-15T10:57:50.610Z,1980
2016-04-15T10:58:18.722Z,1915
2016-04-15T10:58:35.378Z,1925
2016-04-15T10:58:52.284Z,1905
2016-04-15T10:59:05.708Z,1980
2016-04-15T10:59:19.474Z,2005
2016-04-15T10:59:32.974Z,2060
2016-04-15T10:59:46.490Z,2230
2016-04-15T11:00:00.490Z,2300
2016-04-15T11:00:13.555Z,2500
2016-04-15T11:00:27.118Z,2830
2016-04-15T11:00:41.024Z,2935
2016-04-15T11:01:08.667Z,2950
2016-04-15T11:01:22.074Z,2880
2016-04-15T11:01:49.699Z,2860
2016-04-15T11:02:09.623Z,2445
2016-04-15T11:02:23.294Z,2590
2016-04-15T11:02:36.919Z,2910
2016-04-15T11:02:50.404Z,2750
2016-04-15T11:03:17.969Z,2875
2016-04-15T11:03:31.360Z,2675
2016-04-15T11:04:12.690Z,2465
2016-04-15T11:04:26.846Z,2485
2016-04-15T11:04:44.206Z,2650
2016-04-15T11:05:03.784Z,2680
2016-04-15T11:05:18.193Z,2790
2016-04-15T11:05:45.802Z,3215
2016-04-15T11:06:16.617Z,2670
2016-04-15T11:06:33.070Z,2355
2016-04-15T11:06:50.586Z,2150
2016-04-15T11:07:18.417Z,2125
2016-04-15T11:07:46.292Z,2235
2016-04-15T11:08:02.964Z,2070
2016-04-15T11:08:30.951Z,2235
2016-04-15T11:08:48.014Z,2440
2016-04-15T11:09:01.373Z,2475
2016-04-15T11:09:15.438Z,2255
2016-04-15T11:09:29.298Z,2220
2016-04-15T11:09:42.735Z,2265
2016-04-15T11:10:10.285Z,1895
2016-04-15T11:10:23.848Z,1920
2016-04-15T11:10:37.176Z,1865
2016-04-15T11:10:51.316Z,2355
2016-04-15T11:11:05.145Z,2265
2016-04-15T11:11:19.678Z,2055
2016-04-15T11:11:50.725Z,1795
2016-04-15T11:12:07.603Z,1840
2016-04-15T11:12:21.337Z,2115
2016-04-15T11:12:34.978Z,1860
2016-04-15T11:12:48.431Z,1795
2016-04-15T11:13:02.290Z,1755
2016-04-15T11:13:38.918Z,1775
2016-04-15T11:13:52.574Z,1845
2016-04-15T11:14:20.123Z,1915
2016-04-15T11:14:34.201Z,2235
2016-04-15T11:14:47.873Z,2230
2016-04-15T11:15:02.092Z,1935
2016-04-15T11:15:15.908Z,2085
2016-04-15T11:15:29.423Z,1825
2016-04-15T11:16:00.017Z,1680
2016-04-15T11:16:17.066Z,1565
2016-04-15T11:16:39.988Z,1450
2016-04-15T11:16:54.191Z,1360
2016-04-15T11:17:07.788Z,1295
2016-04-15T11:17:21.272Z,1245
2016-04-15T11:17:37.881Z,1205
2016-04-15T11:18:39.165Z,1295
2016-04-15T11:18:52.571Z,1300
2016-04-15T11:19:06.136Z,1300
2016-04-15T11:19:19.964Z,1285
2016-04-15T11:19:33.808Z,1275
2016-04-15T11:20:01.324Z,1240
2016-04-15T11:20:15.171Z,1240
2016-04-15T11:20:28.796Z,1265
2016-04-15T11:20:45.436Z,1330
2016-04-15T11:20:59.108Z,1445
2016-04-15T11:21:12.924Z,1520
2016-04-15T11:21:41.111Z,1740
2016-04-15T11:21:55.314Z,1850
2016-04-15T11:22:09.302Z,2155
2016-04-15T11:22:22.864Z,2195
2016-04-15T11:22:43.458Z,2260
2016-04-15T11:23:11.194Z,2085
2016-04-15T11:23:28.366Z,1935
2016-04-15T11:23:44.788Z,1890
2016-04-15T11:24:01.569Z,1975
2016-04-15T11:24:18.213Z,2125
2016-04-15T11:24:32.072Z,2265
2016-04-15T11:25:00.697Z,2050
2016-04-15T11:25:57.059Z,1705
2016-04-15T11:26:10.515Z,1605
2016-04-15T11:26:27.030Z,1495
2016-04-15T11:26:40.937Z,1410
2016-04-15T11:26:55.093Z,1330
2016-04-15T11:27:11.518Z,1245
2016-04-15T11:27:53.549Z,1155
2016-04-15T11:28:06.927Z,1180
2016-04-15T11:28:20.568Z,1215
2016-04-15T11:28:34.583Z,1245
2016-04-15T11:28:48.208Z,1265
2016-04-15T11:29:02.239Z,1290
2016-04-15T11:29:15.680Z,1330
2016-04-15T11:29:31.883Z,1465
2016-04-15T11:29:59.414Z,1480
2016-04-15T11:30:16.152Z,1525
2016-04-15T11:30:43.949Z,1600
2016-04-15T11:30:57.683Z,1655
2016-04-15T11:31:14.935Z,1590
2016-04-15T11:31:29.013Z,1515
2016-04-15T11:31:42.654Z,1480
2016-04-15T11:31:56.872Z,1465
2016-04-15T11:32:24.485Z,1455
2016-04-15T11:32:41.485Z,1440
2016-04-15T11:32:55.172Z,1425
2016-04-15T11:33:25.502Z,1360
2016-04-15T11:33:38.862Z,1355
2016-04-15T11:33:52.565Z,1345
2016-04-15T11:34:24.349Z,1290
2016-04-15T11:34:40.740Z,1275
2016-04-15T11:34:57.146Z,1285
2016-04-15T11:35:42.087Z,1285
2016-04-15T11:35:55.946Z,1285
2016-04-15T11:36:09.542Z,1285
2016-04-15T11:36:23.120Z,1310
2016-04-15T11:36:40.698Z,1325
2016-04-15T11:37:10.217Z,1335
2016-04-15T11:37:26.482Z,1350
2016-04-15T11:37:40.467Z,1375
2016-04-15T11:38:08.687Z,1340
2016-04-15T11:38:28.906Z,1255
2016-04-15T11:38:42.500Z,1185
2016-04-15T11:38:56.265Z,1135
2016-04-15T11:39:09.785Z,1110
2016-04-15T11:39:27.394Z,1075
2016-04-15T11:40:09.896Z,1085
2016-04-15T11:40:24.443Z,1120
2016-04-15T11:40:38.678Z,1175
2016-04-15T11:41:06.446Z,1230
2016-04-15T11:41:20.118Z,1220
2016-04-15T11:41:48.259Z,1165
2016-04-15T11:42:01.649Z,1170
2016-04-15T11:42:15.464Z,1200
2016-04-15T11:42:30.151Z,1235
2016-04-15T11:42:43.761Z,1225
2016-04-15T11:42:57.151Z,1190
2016-04-15T11:43:14.904Z,1160
2016-04-15T11:43:48.795Z,1105
2016-04-15T11:44:05.561Z,1070
2016-04-15T11:44:20.282Z,1040
2016-04-15T11:44:48.126Z,965
2016-04-15T11:45:01.829Z,935
2016-04-15T11:45:15.347Z,905
2016-04-15T11:45:28.784Z,885
2016-04-15T11:45:42.784Z,865
2016-04-15T11:45:58.425Z,855
2016-04-15T11:46:14.741Z,855
2016-04-15T11:46:28.662Z,880
2016-04-15T11:46:42.397Z,920
2016-04-15T11:46:56.569Z,990
2016-04-15T11:47:10.540Z,1065
2016-04-15T11:47:52.244Z,1235
2016-04-15T11:48:06.214Z,1260
2016-04-15T11:48:21.308Z,1300
2016-04-15T11:48:38.355Z,1340
2016-04-15T11:48:51.761Z,1365
2016-04-15T11:49:05.308Z,1395
2016-04-15T11:49:33.702Z,1650
2016-04-15T11:49:50.514Z,1605
2016-04-15T11:50:05.749Z,1675
2016-04-15T11:50:22.689Z,1795
2016-04-15T11:50:51.017Z,1670
2016-04-15T11:51:04.439Z,1625
2016-04-15T11:51:18.332Z,1550
2016-04-15T11:51:46.129Z,1385
2016-04-15T11:52:00.832Z,1330
2016-04-15T11:52:15.022Z,1300
2016-04-15T11:52:28.507Z,1285
2016-04-15T11:52:42.803Z,1290
2016-04-15T11:52:56.803Z,1330
2016-04-15T11:53:10.916Z,1395
2016-04-15T11:53:24.713Z,1460
2016-04-15T11:53:38.635Z,1485
2016-04-15T11:53:51.603Z,1500
2016-04-15T11:54:20.512Z,1530
2016-04-15T11:54:37.199Z,1485
2016-04-15T11:54:50.590Z,1415
2016-04-15T11:55:05.668Z,1350
2016-04-15T11:55:18.843Z,1280
2016-04-15T11:56:03.171Z,1110
2016-04-15T11:56:32.064Z,1075
2016-04-15T11:56:49.502Z,1110
2016-04-15T11:57:31.489Z,1220
2016-04-15T11:57:48.411Z,1275
2016-04-15T11:58:16.039Z,1330